Flight Track Log - Related Links

Times and Time Zones

All times are in EDT time to prevent confusion due to time zone crossing. See the CTL18 flight status page for this flight to view local times or setup timezone preferences in your user account.

Time Position Orientation Groundspeed Altitude Reporting Facility
EDT Latitude Longitude Course Direction KTS MPH feet Rate Location/Type
Wed 08:52:35 PM 42.2653 -83.5658 298° West 118 136 2,000  Level Cleveland Center
Wed 08:53:42 PM 42.2806 -83.6114 294° West 132 152 3,000 738 Climbing Cleveland Center
Wed 08:54:37 PM 42.2531 -83.6269 203° Southwest 171 197 3,500 694 Climbing Cleveland Center
Wed 08:55:43 PM 42.2486 -83.5650 96° East 147 169 4,400 709 Climbing Cleveland Center
Wed 08:56:44 PM 42.2331 -83.5139 112° Southeast 151 174 5,000 310 Climbing Cleveland Center
Wed 08:57:39 PM 42.2114 -83.4650 121° Southeast 177 204 5,000  Level Cleveland Center
Wed 08:58:40 PM 42.1942 -83.4000 110° East 178 205 5,000  Level Cleveland Center
Wed 08:59:41 PM 42.1728 -83.3372 115° Southeast 178 205 5,000  Level Cleveland Center
Wed 09:00:42 PM 42.1533 -83.2833 116° Southeast 173 199 5,000  Level Cleveland Center
Wed 09:01:43 PM 42.1297 -83.2206 117° Southeast 174 200 5,000  Level Cleveland Center
Wed 09:02:43 PM 42.1058 -83.1664 121° Southeast 171 197 5,000 52 Level Cleveland Center
Wed 09:03:38 PM 42.0842 -83.1125 118° Southeast 172 198 5,100  Climbing Cleveland Center
Wed 09:04:39 PM 42.0625 -83.0528 116° Southeast 178 205 5,000 -52 Descending Cleveland Center
Wed 09:05:34 PM 42.0408 -82.9961 117° Southeast 185 213 5,000  Level Cleveland Center
Wed 09:06:35 PM 42.0150 -82.9419 123° Southeast 182 209 5,000  Level Cleveland Center
Wed 09:07:30 PM 41.9972 -82.8856 113° Southeast 182 209 5,000  Level Cleveland Center
Wed 09:08:30 PM 41.9714 -82.8231 119° Southeast 182 209 5,000 63 Level Cleveland Center
Wed 09:09:06 PM 41.9533 -82.7889 125° Southeast 181 208 5,100 124 Climbing Cleveland Center
Wed 09:10:07 PM 41.9317 -82.7267 115° Southeast 180 207 5,200  Climbing Cleveland Center
Wed 09:11:07 PM 41.9097 -82.6647 115° Southeast 183 211 5,100 -47 Descending Cleveland Center
Wed 09:12:14 PM 41.8817 -82.6050 122° Southeast 175 201 5,100 -300 Level Cleveland Center
Wed 09:13:27 PM 41.8558 -82.5375 117° Southeast 159 183 4,400 -709 Descending Cleveland Center
Wed 09:14:21 PM 41.8397 -82.4922 116° Southeast 145 167 3,600 -678 Descending Cleveland Center
Wed 09:15:22 PM 41.8197 -82.4444 119° Southeast 152 175 3,100 -236 Descending Cleveland Center
Wed 09:16:28 PM 41.7978 -82.3908 119° Southeast 135 155 3,100  Level Cleveland Center
Wed 09:17:29 PM 41.7775 -82.3428 119° Southeast 160 184 3,100  Level Cleveland Center
Wed 09:18:30 PM 41.7575 -82.2867 116° Southeast 177 204 3,100  Level Cleveland Center
Wed 09:19:30 PM 41.7333 -82.2303 120° Southeast 172 198 3,100  Level Cleveland Center
Wed 09:20:25 PM 41.7133 -82.1769 117° Southeast 172 198 3,100  Level Cleveland Center
Wed 09:21:44 PM 41.6872 -82.1014 115° Southeast 175 201 3,100  Level Cleveland Center
Wed 09:22:32 PM 41.6692 -82.0592 120° Southeast 175 201 3,100  Level Cleveland Center
Wed 09:23:33 PM 41.6428 -82.0003 121° Southeast 180 207 3,100  Level Cleveland Center
Wed 09:24:28 PM 41.6203 -81.9469 119° Southeast 179 206 3,100 -246 Level Cleveland Center
Wed 09:25:35 PM 41.5961 -81.8769 115° Southeast 183 211 2,600 -545 Descending Cleveland Center
Wed 09:26:29 PM 41.5717 -81.8211 120° Southeast 195 224 2,000 -522 Descending Cleveland Center
Wed 09:27:30 PM 41.5494 -81.7594 116° Southeast 175 201 1,600 -198 Descending Cleveland Center
Wed 09:28:30 PM 41.5397 -81.7067 104° East 138 159 1,600  Level Cleveland Center
Wed 09:30:00 PM 41.5175 -81.6833 116° Southeast  Level Estimated
Wed 09:37:00 PM 41.5175 -81.6833 116° Southeast  Level Estimated

Login

Don't have an account? Register now (free) for customized features, flight alerts, and more!